createdAt,value
2022-10-24T00:01:40.951Z,90.80
2022-10-24T00:04:09.156Z,91.00
2022-10-24T00:06:37.186Z,91.10
2022-10-24T00:09:05.452Z,91.10
2022-10-24T00:11:33.819Z,91.30
2022-10-24T00:14:03.051Z,91.50
2022-10-24T00:16:32.678Z,91.90
2022-10-24T00:19:00.654Z,92.00
2022-10-24T00:21:28.728Z,91.90
2022-10-24T00:23:56.757Z,92.10
2022-10-24T00:26:24.848Z,92.20
2022-10-24T00:28:53.013Z,92.40
2022-10-24T00:31:21.115Z,92.50
2022-10-24T00:33:51.037Z,92.40
2022-10-24T00:36:22.823Z,92.40
2022-10-24T00:38:51.675Z,92.60
2022-10-24T00:41:22.382Z,92.90
2022-10-24T00:43:50.760Z,93.20
2022-10-24T00:46:20.871Z,93.20
2022-10-24T00:48:53.383Z,93.30
2022-10-24T00:51:24.686Z,93.10
2022-10-24T00:53:55.409Z,93.30
2022-10-24T00:56:29.054Z,93.50
2022-10-24T00:58:59.088Z,93.60
2022-10-24T01:01:27.531Z,93.40
2022-10-24T01:03:57.043Z,93.40
2022-10-24T01:06:40.143Z,93.60
2022-10-24T01:09:23.034Z,93.60
2022-10-24T01:12:04.188Z,93.70
2022-10-24T01:14:43.323Z,93.90
2022-10-24T01:17:17.847Z,93.60
2022-10-24T01:20:29.741Z,93.60
2022-10-24T01:23:26.368Z,93.90
2022-10-24T01:26:05.159Z,93.80
2022-10-24T01:28:37.811Z,93.70
2022-10-24T01:31:11.172Z,93.70
2022-10-24T01:33:43.112Z,93.70
2022-10-24T01:36:15.829Z,93.90
2022-10-24T01:38:47.979Z,94.00
2022-10-24T01:41:21.096Z,93.90
2022-10-24T01:46:32.493Z,94.20
2022-10-24T01:49:05.451Z,94.50
2022-10-24T01:51:35.399Z,94.80
2022-10-24T01:54:04.413Z,95.10
2022-10-24T01:56:33.111Z,95.50
2022-10-24T01:59:07.552Z,95.20
2022-10-24T02:01:38.052Z,95.40
2022-10-24T02:04:12.155Z,95.50
2022-10-24T02:06:43.456Z,95.50
2022-10-24T02:09:17.127Z,95.50
2022-10-24T02:11:48.651Z,95.50
2022-10-24T02:14:19.768Z,95.50
2022-10-24T02:16:50.662Z,95.50
2022-10-24T02:19:19.449Z,95.50
2022-10-24T02:21:53.626Z,95.50
2022-10-24T02:24:25.856Z,95.50
2022-10-24T02:26:58.497Z,95.50
2022-10-24T02:29:40.706Z,95.50
2022-10-24T02:32:13.737Z,95.50
2022-10-24T02:34:43.290Z,95.50
2022-10-24T02:37:13.884Z,95.50
2022-10-24T02:39:44.252Z,95.50
2022-10-24T02:42:13.702Z,95.50
2022-10-24T02:44:46.277Z,95.50
2022-10-24T02:47:17.086Z,95.50
2022-10-24T02:49:45.558Z,95.50
2022-10-24T02:52:13.849Z,95.50
2022-10-24T02:54:41.902Z,95.50
2022-10-24T02:57:10.066Z,95.50
2022-10-24T02:59:38.024Z,95.50
2022-10-24T03:02:06.119Z,95.50
2022-10-24T03:04:35.544Z,95.50
2022-10-24T03:07:03.583Z,95.50
2022-10-24T03:09:31.658Z,95.50
2022-10-24T03:11:59.648Z,95.50
2022-10-24T03:14:27.649Z,95.50
2022-10-24T03:16:55.664Z,95.50
2022-10-24T03:19:23.752Z,95.50
2022-10-24T03:21:53.144Z,95.50
2022-10-24T03:24:31.065Z,95.50
2022-10-24T03:27:09.271Z,95.50
2022-10-24T03:29:37.466Z,95.50
2022-10-24T03:32:06.518Z,95.50
2022-10-24T03:34:34.597Z,95.50
2022-10-24T03:37:04.169Z,95.50
2022-10-24T03:39:32.227Z,95.50
2022-10-24T03:42:00.289Z,95.50
2022-10-24T03:44:28.409Z,95.50
2022-10-24T03:46:56.486Z,95.50
2022-10-24T03:49:24.566Z,95.50
2022-10-24T03:51:52.592Z,95.50
2022-10-24T03:54:21.947Z,95.50
2022-10-24T03:56:50.107Z,95.50
2022-10-24T03:59:18.148Z,95.50
2022-10-24T04:01:46.221Z,95.50
2022-10-24T04:04:14.359Z,95.50
2022-10-24T04:06:42.614Z,95.50
2022-10-24T04:09:11.135Z,95.50
2022-10-24T04:11:40.594Z,95.50
2022-10-24T04:14:09.598Z,95.50
2022-10-24T04:16:37.682Z,95.50
2022-10-24T04:19:06.083Z,95.50
2022-10-24T04:21:34.109Z,95.50
2022-10-24T04:24:02.157Z,95.50
2022-10-24T04:26:30.321Z,95.50
2022-10-24T04:28:59.747Z,95.50
2022-10-24T04:31:28.244Z,95.50
2022-10-24T04:33:56.350Z,95.50
2022-10-24T04:36:24.390Z,95.50
2022-10-24T04:38:52.486Z,95.50
2022-10-24T04:41:20.780Z,95.50
2022-10-24T04:43:48.815Z,95.50
2022-10-24T04:46:18.209Z,95.50
2022-10-24T04:48:46.462Z,95.50
2022-10-24T04:51:18.541Z,95.50
2022-10-24T04:53:49.733Z,95.50
2022-10-24T04:56:18.723Z,95.50
2022-10-24T04:58:47.047Z,95.50
2022-10-24T05:01:15.459Z,95.50
2022-10-24T05:03:45.009Z,95.50
2022-10-24T05:06:13.055Z,95.50
2022-10-24T05:08:41.045Z,95.50
2022-10-24T05:11:09.813Z,95.50
2022-10-24T05:13:38.133Z,95.50
2022-10-24T05:16:06.448Z,95.50
2022-10-24T05:18:34.527Z,95.50
2022-10-24T05:21:04.018Z,95.50
2022-10-24T05:23:32.064Z,95.50
2022-10-24T05:26:00.114Z,95.50
2022-10-24T05:28:28.258Z,95.50
2022-10-24T05:30:56.318Z,95.50
2022-10-24T05:33:24.510Z,95.50
2022-10-24T05:35:52.949Z,95.50
2022-10-24T05:38:22.863Z,95.50
2022-10-24T05:40:51.477Z,95.50
2022-10-24T05:43:20.017Z,95.50
2022-10-24T05:48:22.549Z,95.50
2022-10-24T05:50:50.534Z,95.50
2022-10-24T05:53:18.529Z,95.50
2022-10-24T05:55:47.932Z,95.50
2022-10-24T05:58:21.017Z,95.50
2022-10-24T06:00:53.580Z,95.50
2022-10-24T06:03:22.416Z,95.50
2022-10-24T06:05:50.470Z,95.50
2022-10-24T06:08:18.499Z,95.50
2022-10-24T06:10:49.654Z,95.50
2022-10-24T06:13:17.970Z,95.50
2022-10-24T06:15:46.128Z,95.50
2022-10-24T06:18:14.284Z,95.50
2022-10-24T06:20:42.397Z,95.50
2022-10-24T06:23:10.369Z,95.50
2022-10-24T06:25:38.431Z,95.50
2022-10-24T06:30:37.154Z,95.50
2022-10-24T06:33:05.248Z,95.50
2022-10-24T06:35:33.375Z,95.50
2022-10-24T06:38:01.497Z,95.50
2022-10-24T06:40:29.526Z,95.50
2022-10-24T06:42:57.812Z,95.50
2022-10-24T06:45:27.266Z,95.50
2022-10-24T06:47:55.702Z,95.50
2022-10-24T06:50:24.133Z,95.50
2022-10-24T06:52:52.139Z,95.50
2022-10-24T06:55:20.149Z,95.50
2022-10-24T06:57:48.285Z,95.50
2022-10-24T07:00:16.976Z,95.50
2022-10-24T07:02:46.742Z,95.50
2022-10-24T07:05:15.212Z,95.50
2022-10-24T07:07:44.513Z,95.50
2022-10-24T07:10:15.465Z,95.50
2022-10-24T07:12:44.971Z,95.50
2022-10-24T07:15:13.438Z,95.50
2022-10-24T07:17:42.629Z,95.50
2022-10-24T07:20:13.964Z,95.50
2022-10-24T07:22:42.604Z,95.50
2022-10-24T07:25:11.362Z,95.50
2022-10-24T07:27:40.439Z,95.50
2022-10-24T07:30:10.201Z,95.50
2022-10-24T07:32:38.211Z,95.50
2022-10-24T07:35:06.908Z,95.50
2022-10-24T07:37:36.339Z,95.50
2022-10-24T07:40:04.689Z,95.50
2022-10-24T07:42:32.852Z,95.50
2022-10-24T07:45:02.725Z,95.50
2022-10-24T07:47:30.781Z,95.50
2022-10-24T07:49:58.809Z,95.50
2022-10-24T07:52:26.925Z,95.50
2022-10-24T07:54:56.845Z,95.50
2022-10-24T07:57:25.447Z,95.50
2022-10-24T07:59:53.455Z,95.50
2022-10-24T08:02:21.548Z,95.50
2022-10-24T08:04:49.553Z,95.50
2022-10-24T08:07:17.684Z,95.50
2022-10-24T08:09:47.681Z,95.50
2022-10-24T08:12:17.059Z,95.50
2022-10-24T08:14:45.125Z,95.50
2022-10-24T08:17:13.349Z,95.50
2022-10-24T08:19:44.047Z,95.50
2022-10-24T08:22:13.073Z,95.50
2022-10-24T08:24:41.244Z,95.50
2022-10-24T08:27:09.303Z,95.50
2022-10-24T08:29:38.687Z,95.50
2022-10-24T08:32:07.315Z,95.50
2022-10-24T08:34:35.490Z,95.50
2022-10-24T08:37:04.353Z,95.50
2022-10-24T08:39:32.464Z,95.50
2022-10-24T08:42:03.899Z,95.50
2022-10-24T08:44:35.637Z,95.50
2022-10-24T08:47:10.259Z,95.50
2022-10-24T08:49:41.886Z,95.50
2022-10-24T08:52:19.612Z,95.50
2022-10-24T08:54:48.394Z,95.50
2022-10-24T08:57:23.445Z,95.50
2022-10-24T08:59:54.355Z,95.50
2022-10-24T09:02:26.668Z,95.50
2022-10-24T09:04:58.262Z,95.50
2022-10-24T09:07:27.011Z,95.50
2022-10-24T09:10:04.171Z,95.50
2022-10-24T09:12:32.171Z,95.50
2022-10-24T09:15:01.232Z,95.50
2022-10-24T09:17:34.539Z,95.50
2022-10-24T09:20:07.742Z,95.50
2022-10-24T09:22:39.492Z,95.50
2022-10-24T09:25:15.833Z,95.50
2022-10-24T09:27:44.815Z,95.50
2022-10-24T09:30:19.087Z,95.50
2022-10-24T09:32:49.047Z,95.50
2022-10-24T09:35:20.055Z,95.50
2022-10-24T09:37:50.307Z,95.50
2022-10-24T09:40:24.174Z,95.50
2022-10-24T09:42:57.144Z,95.50
2022-10-24T09:45:40.920Z,95.50
2022-10-24T09:48:26.051Z,95.50
2022-10-24T09:50:58.060Z,95.50
2022-10-24T09:53:28.447Z,95.50
2022-10-24T09:55:59.200Z,95.50
2022-10-24T09:58:32.657Z,95.50
2022-10-24T10:01:03.552Z,95.50
2022-10-24T10:03:34.963Z,95.50
2022-10-24T10:06:09.604Z,95.50
2022-10-24T10:08:38.610Z,95.50
2022-10-24T10:11:08.845Z,95.50
2022-10-24T10:13:49.393Z,95.50
2022-10-24T10:16:24.616Z,95.50
2022-10-24T10:19:03.263Z,95.50
2022-10-24T10:21:57.937Z,95.50
2022-10-24T10:24:28.691Z,95.50
2022-10-24T10:26:56.822Z,95.50
2022-10-24T10:29:25.292Z,95.50
2022-10-24T10:32:01.153Z,95.50
2022-10-24T10:34:38.338Z,95.50
2022-10-24T10:37:25.494Z,95.50
2022-10-24T10:40:17.167Z,95.50
2022-10-24T10:42:57.168Z,95.50
2022-10-24T10:45:35.691Z,95.50
2022-10-24T10:48:13.064Z,95.50
2022-10-24T10:50:47.005Z,95.50
2022-10-24T10:53:31.023Z,95.50
2022-10-24T10:56:09.323Z,95.50
2022-10-24T10:58:45.844Z,95.50
2022-10-24T11:01:24.630Z,95.50
2022-10-24T11:03:59.600Z,95.50
2022-10-24T11:06:42.670Z,95.50
2022-10-24T11:09:27.676Z,95.50
2022-10-24T11:12:03.660Z,95.50
2022-10-24T11:14:34.798Z,95.50
2022-10-24T11:17:12.095Z,95.50
2022-10-24T11:19:54.968Z,95.50
2022-10-24T11:22:26.645Z,95.50
2022-10-24T11:25:00.707Z,95.50
2022-10-24T11:27:36.682Z,95.50
2022-10-24T11:30:13.218Z,95.50
2022-10-24T11:32:47.203Z,95.50
2022-10-24T11:35:25.326Z,95.50
2022-10-24T11:37:58.053Z,95.50
2022-10-24T11:40:30.220Z,95.50
2022-10-24T11:43:05.948Z,95.50
2022-10-24T11:45:43.074Z,95.50
2022-10-24T11:48:17.989Z,95.50
2022-10-24T11:50:50.979Z,95.50
2022-10-24T11:53:27.411Z,95.50
2022-10-24T11:56:00.805Z,95.50
2022-10-24T11:58:31.445Z,95.50
2022-10-24T12:01:25.931Z,95.50
2022-10-24T12:04:21.998Z,95.50
2022-10-24T12:07:08.655Z,95.50
2022-10-24T12:09:51.146Z,95.50
2022-10-24T12:12:36.042Z,95.50
2022-10-24T12:15:21.831Z,95.50
2022-10-24T12:18:06.424Z,95.50
2022-10-24T12:20:35.349Z,95.50
2022-10-24T12:23:04.467Z,95.50
2022-10-24T12:25:35.514Z,95.50
2022-10-24T12:28:08.488Z,95.50
2022-10-24T12:30:37.906Z,95.50
2022-10-24T12:33:12.793Z,95.50
2022-10-24T12:35:51.857Z,95.50
2022-10-24T12:38:55.545Z,95.50
2022-10-24T12:41:39.078Z,95.50
2022-10-24T12:44:45.373Z,95.50
2022-10-24T12:47:33.502Z,95.50
2022-10-24T12:50:44.550Z,95.50
2022-10-24T12:53:32.453Z,95.50
2022-10-24T12:56:13.654Z,95.50
2022-10-24T12:58:43.711Z,95.50
2022-10-24T13:01:25.984Z,95.50
2022-10-24T13:04:27.541Z,95.50
2022-10-24T13:07:18.101Z,95.50
2022-10-24T13:09:53.962Z,95.50
2022-10-24T13:12:52.048Z,95.50
2022-10-24T13:15:30.523Z,95.50
2022-10-24T13:18:08.273Z,95.50
2022-10-24T13:20:40.413Z,95.50
2022-10-24T13:23:18.468Z,95.50
2022-10-24T13:25:47.611Z,95.50
2022-10-24T13:28:39.012Z,95.50
2022-10-24T13:31:48.279Z,95.50
2022-10-24T13:34:40.620Z,95.50
2022-10-24T13:37:17.031Z,95.50
2022-10-24T13:39:52.062Z,95.50
2022-10-24T13:42:26.355Z,95.50
2022-10-24T13:44:59.623Z,95.50
2022-10-24T13:47:32.603Z,95.50
2022-10-24T13:50:05.486Z,95.50
2022-10-24T13:52:39.734Z,95.50
2022-10-24T13:55:20.493Z,95.50
2022-10-24T13:57:55.169Z,95.50
2022-10-24T14:00:26.296Z,95.50
2022-10-24T14:02:56.198Z,95.50
2022-10-24T14:05:38.734Z,95.50
2022-10-24T14:08:09.585Z,95.50
2022-10-24T14:10:39.388Z,95.50
2022-10-24T14:13:07.489Z,95.50
2022-10-24T14:15:35.566Z,95.50
2022-10-24T14:18:08.482Z,95.50
2022-10-24T14:20:38.938Z,95.50
2022-10-24T14:23:24.180Z,95.50
2022-10-24T14:25:57.179Z,95.50
2022-10-24T14:28:29.854Z,95.50
2022-10-24T14:31:00.125Z,95.50
2022-10-24T14:33:30.331Z,95.50
2022-10-24T14:36:02.964Z,95.50
2022-10-24T14:38:31.710Z,95.50
2022-10-24T14:41:09.083Z,95.50
2022-10-24T14:43:41.856Z,95.50
2022-10-24T14:46:37.019Z,95.50
2022-10-24T14:49:21.212Z,95.50
2022-10-24T14:54:30.366Z,95.50
2022-10-24T14:57:00.709Z,95.50
2022-10-24T14:59:34.987Z,95.50
2022-10-24T15:02:07.072Z,95.50
2022-10-24T15:04:39.430Z,95.50
2022-10-24T15:07:20.936Z,95.50
2022-10-24T15:09:54.033Z,95.50
2022-10-24T15:12:28.107Z,95.50
2022-10-24T15:14:57.170Z,95.50
2022-10-24T15:17:32.718Z,95.50
2022-10-24T15:20:02.943Z,95.50
2022-10-24T15:22:38.364Z,95.50
2022-10-24T15:25:10.122Z,95.50
2022-10-24T15:27:41.332Z,95.50
2022-10-24T15:30:15.603Z,95.50
2022-10-24T15:32:45.837Z,95.50
2022-10-24T15:35:14.340Z,95.50
2022-10-24T15:37:54.374Z,95.50
2022-10-24T15:40:24.786Z,95.50
2022-10-24T15:42:53.407Z,95.50
2022-10-24T15:45:21.959Z,95.50
2022-10-24T15:47:51.591Z,95.50
2022-10-24T15:52:56.362Z,95.50
2022-10-24T15:55:26.362Z,95.50
2022-10-24T15:57:54.403Z,95.50
2022-10-24T16:00:23.680Z,95.50
2022-10-24T16:02:57.157Z,95.50
2022-10-24T16:05:28.301Z,95.50
2022-10-24T16:07:57.674Z,95.50
2022-10-24T16:10:25.768Z,95.50
2022-10-24T16:12:53.901Z,95.50
2022-10-24T16:15:25.594Z,95.50
2022-10-24T16:17:54.109Z,95.50
2022-10-24T16:20:22.791Z,95.50
2022-10-24T16:22:51.264Z,95.50
2022-10-24T16:25:22.942Z,95.50
2022-10-24T16:27:51.493Z,95.50
2022-10-24T16:30:22.367Z,95.50
2022-10-24T16:32:50.985Z,95.50
2022-10-24T16:35:21.235Z,95.50
2022-10-24T16:37:49.428Z,95.50
2022-10-24T16:40:17.840Z,95.50
2022-10-24T16:42:49.942Z,95.50
2022-10-24T16:45:19.052Z,95.50
2022-10-24T16:47:48.054Z,95.50
2022-10-24T16:50:18.516Z,95.50
2022-10-24T16:52:46.813Z,95.50
2022-10-24T16:55:15.267Z,95.50
2022-10-24T16:57:43.554Z,95.50
2022-10-24T17:00:16.854Z,95.50
2022-10-24T17:02:45.729Z,95.50
2022-10-24T17:05:14.404Z,95.50
2022-10-24T17:07:43.204Z,95.50
2022-10-24T17:10:12.905Z,95.50
2022-10-24T17:12:42.304Z,95.50
2022-10-24T17:15:11.675Z,95.50
2022-10-24T17:17:44.036Z,95.50
2022-10-24T17:20:13.824Z,95.50
2022-10-24T17:22:44.283Z,95.50
2022-10-24T17:25:19.322Z,95.50
2022-10-24T17:27:48.301Z,95.50
2022-10-24T17:30:19.844Z,95.50
2022-10-24T17:32:50.256Z,95.50
2022-10-24T17:35:21.487Z,95.50
2022-10-24T17:38:08.284Z,95.50
2022-10-24T17:40:42.789Z,95.50
2022-10-24T17:43:20.253Z,95.50
2022-10-24T17:45:49.889Z,95.50
2022-10-24T17:48:19.892Z,95.50
2022-10-24T17:50:48.041Z,95.50
2022-10-24T17:53:17.768Z,95.50
2022-10-24T17:55:47.783Z,95.50
2022-10-24T17:58:17.275Z,95.50
2022-10-24T18:00:46.104Z,95.50
2022-10-24T18:03:14.725Z,95.50
2022-10-24T18:05:44.195Z,95.50
2022-10-24T18:08:14.345Z,95.50
2022-10-24T18:10:43.239Z,95.50
2022-10-24T18:13:11.666Z,95.50
2022-10-24T18:15:42.917Z,95.50
2022-10-24T18:18:11.068Z,95.50
2022-10-24T18:20:39.154Z,95.50
2022-10-24T18:23:08.641Z,95.50
2022-10-24T18:25:38.447Z,95.50
2022-10-24T18:28:06.719Z,95.50
2022-10-24T18:30:35.362Z,95.50
2022-10-24T18:33:03.703Z,95.50
2022-10-24T18:35:34.029Z,95.50
2022-10-24T18:38:02.119Z,95.50
2022-10-24T18:40:33.526Z,95.50
2022-10-24T18:43:05.295Z,95.50
2022-10-24T18:45:34.396Z,95.50
2022-10-24T18:48:03.230Z,95.50
2022-10-24T18:50:31.701Z,95.50
2022-10-24T18:53:05.052Z,95.50
2022-10-24T18:55:36.073Z,95.50
2022-10-24T18:58:05.039Z,95.50
2022-10-24T19:00:38.065Z,95.50
2022-10-24T19:03:16.469Z,95.50
2022-10-24T19:05:51.863Z,95.50
2022-10-24T19:08:25.229Z,95.50
2022-10-24T19:10:56.676Z,95.50
2022-10-24T19:13:26.461Z,95.50
2022-10-24T19:15:58.055Z,95.50
2022-10-24T19:18:28.404Z,95.50
2022-10-24T19:20:56.611Z,95.50
2022-10-24T19:23:27.686Z,95.50
2022-10-24T19:25:57.049Z,95.50
2022-10-24T19:28:25.105Z,95.50
2022-10-24T19:30:53.995Z,95.50
2022-10-24T19:33:24.994Z,95.50
2022-10-24T19:35:53.046Z,95.50
2022-10-24T19:38:21.453Z,95.50
2022-10-24T19:40:51.904Z,95.50
2022-10-24T19:43:22.172Z,95.50
2022-10-24T19:46:07.085Z,95.50
2022-10-24T19:48:37.817Z,95.50
2022-10-24T19:51:07.437Z,95.50
2022-10-24T19:53:39.655Z,95.50
2022-10-24T19:56:09.325Z,95.50
2022-10-24T19:58:39.007Z,95.50
2022-10-24T20:01:08.448Z,95.50
2022-10-24T20:03:37.087Z,95.50
2022-10-24T20:06:05.547Z,95.50
2022-10-24T20:08:33.648Z,95.50
2022-10-24T20:11:01.688Z,95.50
2022-10-24T20:13:29.952Z,95.50
2022-10-24T20:16:00.784Z,95.50
2022-10-24T20:18:31.753Z,95.50
2022-10-24T20:20:59.931Z,95.50
2022-10-24T20:23:27.993Z,95.50
2022-10-24T20:26:00.334Z,95.50
2022-10-24T20:28:28.815Z,95.50
2022-10-24T20:30:57.302Z,95.50
2022-10-24T20:33:26.705Z,95.50
2022-10-24T20:35:59.229Z,95.50
2022-10-24T20:38:27.648Z,95.50
2022-10-24T20:40:56.115Z,95.50
2022-10-24T20:43:24.261Z,95.50
2022-10-24T20:45:52.646Z,95.50
2022-10-24T20:48:20.718Z,95.50
2022-10-24T20:50:50.148Z,95.50
2022-10-24T20:53:20.298Z,95.50
2022-10-24T20:55:48.424Z,95.50
2022-10-24T20:58:16.713Z,95.50
2022-10-24T21:00:44.926Z,95.50
2022-10-24T21:03:14.333Z,95.50
2022-10-24T21:05:42.473Z,95.50
2022-10-24T21:08:12.045Z,95.50
2022-10-24T21:10:40.149Z,95.50
2022-10-24T21:13:08.199Z,95.50
2022-10-24T21:15:36.304Z,95.50
2022-10-24T21:18:04.880Z,95.50
2022-10-24T21:20:32.975Z,95.50
2022-10-24T21:23:01.320Z,95.50
2022-10-24T21:25:30.848Z,95.50
2022-10-24T21:27:58.949Z,95.50
2022-10-24T21:30:27.250Z,95.50
2022-10-24T21:32:56.256Z,95.50
2022-10-24T21:35:24.277Z,95.50
2022-10-24T21:37:52.335Z,95.50
2022-10-24T21:40:20.346Z,95.50
2022-10-24T21:42:50.080Z,95.50
2022-10-24T21:45:18.447Z,95.50
2022-10-24T21:47:46.526Z,95.50
2022-10-24T21:50:14.607Z,95.50
2022-10-24T21:52:43.674Z,95.50
2022-10-24T21:55:12.072Z,95.50
2022-10-24T21:57:40.114Z,95.50
2022-10-24T22:00:11.940Z,95.50
2022-10-24T22:02:40.292Z,95.50
2022-10-24T22:05:08.765Z,95.50
2022-10-24T22:07:36.726Z,95.50
2022-10-24T22:10:05.448Z,95.50
2022-10-24T22:12:33.523Z,95.50
2022-10-24T22:15:01.584Z,95.50
2022-10-24T22:17:30.948Z,95.50
2022-10-24T22:19:58.942Z,95.50
2022-10-24T22:22:27.043Z,95.50
2022-10-24T22:24:55.127Z,95.50
2022-10-24T22:27:23.221Z,95.50
2022-10-24T22:29:51.267Z,95.50
2022-10-24T22:32:19.707Z,95.50
2022-10-24T22:34:49.707Z,95.50
2022-10-24T22:37:25.649Z,95.50
2022-10-24T22:39:54.185Z,95.50
2022-10-24T22:42:22.619Z,95.50
2022-10-24T22:44:51.265Z,95.50
2022-10-24T22:47:35.752Z,95.50
2022-10-24T22:50:21.544Z,95.50
2022-10-24T22:52:50.132Z,95.50
2022-10-24T22:55:26.034Z,95.50
2022-10-24T22:57:54.565Z,95.50
2022-10-24T23:00:23.387Z,95.50
2022-10-24T23:02:58.393Z,95.50
2022-10-24T23:05:35.538Z,95.50
2022-10-24T23:08:06.397Z,95.50
2022-10-24T23:10:36.487Z,95.50
2022-10-24T23:13:05.207Z,95.50
2022-10-24T23:15:33.754Z,95.50
2022-10-24T23:18:02.408Z,95.50
2022-10-24T23:20:36.501Z,95.50
2022-10-24T23:23:16.926Z,95.50
2022-10-24T23:25:58.609Z,95.50
2022-10-24T23:28:34.727Z,95.50
2022-10-24T23:33:36.734Z,95.50
2022-10-24T23:36:07.080Z,95.50
2022-10-24T23:38:35.886Z,95.50
2022-10-24T23:41:04.525Z,95.50
2022-10-24T23:43:33.034Z,95.50
2022-10-24T23:46:06.012Z,95.50
2022-10-24T23:48:49.763Z,95.50
2022-10-24T23:51:24.654Z,95.50
2022-10-24T23:53:55.467Z,95.50
2022-10-24T23:56:25.341Z,95.50
2022-10-24T23:58:53.835Z,95.50
